createdAt,value
2022-10-22T00:01:01.506Z,14.90
2022-10-22T00:03:28.126Z,14.40
2022-10-22T00:05:54.778Z,13.00
2022-10-22T00:08:21.388Z,12.80
2022-10-22T00:10:47.903Z,12.30
2022-10-22T00:13:14.869Z,12.10
2022-10-22T00:15:43.224Z,11.80
2022-10-22T00:18:09.877Z,12.20
2022-10-22T00:20:36.669Z,11.80
2022-10-22T00:23:03.412Z,12.20
2022-10-22T00:25:29.947Z,11.20
2022-10-22T00:27:56.419Z,12.90
2022-10-22T00:30:22.900Z,12.60
2022-10-22T00:32:49.486Z,12.50
2022-10-22T00:35:16.077Z,12.30
2022-10-22T00:37:42.648Z,13.10
2022-10-22T00:40:10.315Z,12.00
2022-10-22T00:42:37.084Z,11.80
2022-10-22T00:45:25.418Z,12.00
2022-10-22T00:48:04.554Z,11.60
2022-10-22T00:50:39.206Z,11.20
2022-10-22T00:53:10.763Z,10.70
2022-10-22T00:55:37.809Z,11.80
2022-10-22T00:58:04.824Z,12.30
2022-10-22T01:00:31.862Z,10.80
2022-10-22T01:02:59.460Z,11.90
2022-10-22T01:05:32.480Z,11.80
2022-10-22T01:07:59.271Z,12.00
2022-10-22T01:10:52.571Z,11.00
2022-10-22T01:13:25.965Z,12.10
2022-10-22T01:16:12.692Z,11.60
2022-10-22T01:19:01.368Z,10.90
2022-10-22T01:21:44.604Z,10.70
2022-10-22T01:24:24.424Z,10.10
2022-10-22T01:27:09.532Z,10.00
2022-10-22T01:29:49.554Z,10.00
2022-10-22T01:32:21.164Z,10.40
2022-10-22T01:34:52.981Z,10.20
2022-10-22T01:37:23.032Z,10.50
2022-10-22T01:39:50.683Z,9.30
2022-10-22T01:42:17.402Z,9.90
2022-10-22T01:44:44.064Z,9.50
2022-10-22T01:47:43.331Z,9.40
2022-10-22T01:50:10.021Z,9.60
2022-10-22T01:52:51.811Z,9.50
2022-10-22T01:55:31.068Z,9.90
2022-10-22T01:58:03.602Z,12.10
2022-10-22T02:00:30.705Z,11.00
2022-10-22T02:03:43.863Z,11.50
2022-10-22T02:06:17.501Z,12.80
2022-10-22T02:08:45.611Z,13.40
2022-10-22T02:11:13.863Z,12.70
2022-10-22T02:13:44.608Z,12.10
2022-10-22T02:16:16.149Z,12.70
2022-10-22T02:18:45.282Z,11.70
2022-10-22T02:21:12.200Z,10.90
2022-10-22T02:23:39.523Z,11.20
2022-10-22T02:26:35.197Z,10.90
2022-10-22T02:29:20.570Z,11.30
2022-10-22T02:31:49.056Z,10.60
2022-10-22T02:34:21.976Z,9.80
2022-10-22T02:36:50.950Z,10.30
2022-10-22T02:39:20.673Z,10.10
2022-10-22T02:41:48.365Z,8.90
2022-10-22T02:44:14.866Z,9.70
2022-10-22T02:46:43.653Z,10.10
2022-10-22T02:49:12.242Z,10.10
2022-10-22T02:51:38.656Z,9.30
2022-10-22T02:54:05.319Z,10.30
2022-10-22T02:56:31.808Z,9.40
2022-10-22T02:58:58.499Z,9.90
2022-10-22T03:01:25.000Z,9.20
2022-10-22T03:03:51.681Z,9.80
2022-10-22T03:06:18.558Z,9.70
2022-10-22T03:08:45.552Z,9.80
2022-10-22T03:11:12.527Z,9.40
2022-10-22T03:13:39.067Z,8.90
2022-10-22T03:16:06.228Z,10.20
2022-10-22T03:18:32.766Z,9.60
2022-10-22T03:21:11.388Z,8.80
2022-10-22T03:23:40.692Z,9.40
2022-10-22T03:26:07.949Z,9.70
2022-10-22T03:28:36.128Z,9.40
2022-10-22T03:31:02.944Z,9.30
2022-10-22T03:33:29.387Z,8.50
2022-10-22T03:35:55.863Z,9.60
2022-10-22T03:38:22.392Z,9.80
2022-10-22T03:40:49.033Z,10.50
2022-10-22T03:43:16.702Z,11.20
2022-10-22T03:45:43.247Z,11.20
2022-10-22T03:48:09.884Z,11.70
2022-10-22T03:50:36.425Z,10.90
2022-10-22T03:53:04.295Z,10.60
2022-10-22T03:55:30.910Z,10.80
2022-10-22T03:57:57.376Z,10.80
2022-10-22T04:00:23.918Z,11.00
2022-10-22T04:02:50.561Z,11.40
2022-10-22T04:05:17.304Z,10.90
2022-10-22T04:07:43.994Z,11.30
2022-10-22T04:10:10.638Z,10.90
2022-10-22T04:12:37.129Z,10.40
2022-10-22T04:15:04.692Z,11.80
2022-10-22T04:17:35.796Z,11.00
2022-10-22T04:20:03.610Z,10.00
2022-10-22T04:22:32.935Z,10.20
2022-10-22T04:24:59.450Z,10.30
2022-10-22T04:27:26.023Z,11.00
2022-10-22T04:29:52.526Z,10.60
2022-10-22T04:32:18.946Z,11.30
2022-10-22T04:34:45.376Z,11.20
2022-10-22T04:37:11.939Z,12.10
2022-10-22T04:39:38.422Z,11.50
2022-10-22T04:42:04.969Z,11.60
2022-10-22T04:44:31.561Z,12.30
2022-10-22T04:46:58.120Z,12.20
2022-10-22T04:49:24.762Z,13.60
2022-10-22T04:51:51.278Z,12.60
2022-10-22T04:54:17.973Z,12.50
2022-10-22T04:56:44.457Z,14.30
2022-10-22T04:59:12.231Z,13.60
2022-10-22T05:01:42.986Z,13.90
2022-10-22T05:04:15.925Z,14.30
2022-10-22T05:06:43.530Z,11.70
2022-10-22T05:09:15.983Z,13.30
2022-10-22T05:11:44.996Z,13.40
2022-10-22T05:14:12.469Z,13.80
2022-10-22T05:16:39.226Z,12.40
2022-10-22T05:19:07.306Z,12.30
2022-10-22T05:21:34.556Z,12.20
2022-10-22T05:24:01.064Z,12.60
2022-10-22T05:26:28.955Z,13.70
2022-10-22T05:28:55.496Z,13.30
2022-10-22T05:31:22.281Z,12.00
2022-10-22T05:33:48.983Z,13.00
2022-10-22T05:36:18.813Z,12.80
2022-10-22T05:38:46.090Z,13.40
2022-10-22T05:41:15.399Z,13.50
2022-10-22T05:43:41.906Z,13.50
2022-10-22T05:46:19.823Z,13.20
2022-10-22T05:48:53.318Z,12.50
2022-10-22T05:51:20.812Z,13.60
2022-10-22T05:53:52.152Z,14.80
2022-10-22T05:56:18.671Z,16.20
2022-10-22T05:58:46.068Z,16.00
2022-10-22T06:01:20.937Z,16.20
2022-10-22T06:03:48.636Z,17.40
2022-10-22T06:06:30.441Z,16.80
2022-10-22T06:09:05.637Z,16.70
2022-10-22T06:11:34.991Z,15.60
2022-10-22T06:14:02.138Z,16.20
2022-10-22T06:16:29.829Z,16.40
2022-10-22T06:18:56.650Z,15.70
2022-10-22T06:21:23.192Z,14.30
2022-10-22T06:23:49.736Z,14.60
2022-10-22T06:26:16.260Z,13.10
2022-10-22T06:28:42.667Z,12.60
2022-10-22T06:31:09.876Z,13.90
2022-10-22T06:33:36.286Z,14.60
2022-10-22T06:36:11.175Z,12.60
2022-10-22T06:38:38.339Z,11.30
2022-10-22T06:41:13.777Z,10.80
2022-10-22T06:43:41.568Z,10.90
2022-10-22T06:46:09.921Z,10.60
2022-10-22T06:48:37.393Z,11.00
2022-10-22T06:51:06.262Z,10.90
2022-10-22T06:53:33.316Z,11.80
2022-10-22T06:56:14.840Z,11.50
2022-10-22T06:58:41.753Z,12.50
2022-10-22T07:01:11.156Z,13.20
2022-10-22T07:03:39.063Z,10.70
2022-10-22T07:06:09.182Z,9.70
2022-10-22T07:08:36.475Z,8.80
2022-10-22T07:11:30.808Z,10.60
2022-10-22T07:14:00.772Z,9.70
2022-10-22T07:16:32.058Z,8.20
2022-10-22T07:19:00.368Z,8.60
2022-10-22T07:21:26.897Z,8.50
2022-10-22T07:23:53.597Z,7.40
2022-10-22T07:26:20.059Z,6.90
2022-10-22T07:28:47.541Z,8.20
2022-10-22T07:31:17.561Z,7.90
2022-10-22T07:33:44.195Z,7.80
2022-10-22T07:36:13.726Z,7.30
2022-10-22T07:38:40.258Z,7.60
2022-10-22T07:41:06.751Z,7.90
2022-10-22T07:43:33.237Z,7.70
2022-10-22T07:45:59.677Z,7.30
2022-10-22T07:48:26.196Z,7.80
2022-10-22T07:50:52.629Z,7.60
2022-10-22T07:53:19.605Z,7.80
2022-10-22T07:55:52.835Z,7.70
2022-10-22T07:58:20.581Z,7.00
2022-10-22T08:00:48.458Z,8.00
2022-10-22T08:03:16.163Z,8.30
2022-10-22T08:05:43.247Z,8.40
2022-10-22T08:08:11.034Z,7.50
2022-10-22T08:10:38.494Z,8.20
2022-10-22T08:13:05.954Z,8.00
2022-10-22T08:15:32.568Z,8.30
2022-10-22T08:17:59.137Z,7.70
2022-10-22T08:20:26.053Z,8.30
2022-10-22T08:22:52.629Z,8.20
2022-10-22T08:25:19.476Z,8.30
2022-10-22T08:27:46.377Z,7.30
2022-10-22T08:30:13.890Z,8.70
2022-10-22T08:32:41.386Z,7.40
2022-10-22T08:35:08.299Z,7.90
2022-10-22T08:37:35.696Z,8.10
2022-10-22T08:40:02.918Z,8.00
2022-10-22T08:43:03.764Z,7.60
2022-10-22T08:45:47.309Z,8.40
2022-10-22T08:48:28.874Z,7.90
2022-10-22T08:50:57.614Z,7.30
2022-10-22T08:53:48.911Z,7.20
2022-10-22T08:56:15.864Z,7.50
2022-10-22T08:58:57.155Z,7.10
2022-10-22T09:01:47.888Z,8.00
2022-10-22T09:04:31.393Z,7.30
2022-10-22T09:06:59.706Z,7.50
2022-10-22T09:09:31.949Z,7.50
2022-10-22T09:12:00.674Z,7.10
2022-10-22T09:14:27.491Z,7.70
2022-10-22T09:17:25.885Z,7.30
2022-10-22T09:20:13.650Z,7.30
2022-10-22T09:23:15.282Z,7.40
2022-10-22T09:25:42.845Z,7.00
2022-10-22T09:28:09.905Z,7.40
2022-10-22T09:30:38.104Z,7.60
2022-10-22T09:33:07.792Z,7.70
2022-10-22T09:35:44.191Z,7.40
2022-10-22T09:38:14.608Z,8.00
2022-10-22T09:40:47.378Z,8.10
2022-10-22T09:43:14.809Z,8.10
2022-10-22T09:45:42.817Z,7.30
2022-10-22T09:48:22.690Z,7.50
2022-10-22T09:50:57.199Z,7.40
2022-10-22T09:53:29.055Z,8.00
2022-10-22T09:55:59.409Z,8.80
2022-10-22T09:58:26.863Z,8.60
2022-10-22T10:00:59.286Z,9.00
2022-10-22T10:03:32.323Z,9.10
2022-10-22T10:06:04.793Z,8.70
2022-10-22T10:08:33.011Z,7.90
2022-10-22T10:11:02.403Z,7.90
2022-10-22T10:13:39.674Z,8.40
2022-10-22T10:16:15.841Z,9.40
2022-10-22T10:19:20.350Z,8.80
2022-10-22T10:22:11.102Z,8.20
2022-10-22T10:25:24.123Z,9.10
2022-10-22T10:28:16.683Z,7.90
2022-10-22T10:31:03.163Z,7.70
2022-10-22T10:33:44.863Z,8.50
2022-10-22T10:36:29.542Z,9.30
2022-10-22T10:39:03.135Z,9.40
2022-10-22T10:41:45.666Z,8.50
2022-10-22T10:44:51.101Z,9.80
2022-10-22T10:47:29.521Z,8.40
2022-10-22T10:50:14.080Z,7.20
2022-10-22T10:52:50.064Z,7.80
2022-10-22T10:55:30.790Z,6.60
2022-10-22T10:58:21.545Z,6.60
2022-10-22T11:01:03.409Z,7.00
2022-10-22T11:03:57.195Z,7.10
2022-10-22T11:06:25.923Z,7.00
2022-10-22T11:09:02.547Z,8.00
2022-10-22T11:11:47.470Z,7.30
2022-10-22T11:14:29.970Z,7.00
2022-10-22T11:17:17.210Z,7.50
2022-10-22T11:20:12.394Z,7.50
2022-10-22T11:23:13.062Z,8.20
2022-10-22T11:25:47.082Z,8.00
2022-10-22T11:28:23.907Z,8.50
2022-10-22T11:30:59.364Z,9.20
2022-10-22T11:33:33.441Z,9.60
2022-10-22T11:36:02.808Z,9.10
2022-10-22T11:38:31.712Z,9.30
2022-10-22T11:41:13.973Z,9.70
2022-10-22T11:44:08.001Z,9.90
2022-10-22T11:46:44.309Z,10.70
2022-10-22T11:49:13.881Z,11.80
2022-10-22T11:51:43.187Z,10.90
2022-10-22T11:54:28.471Z,9.90
2022-10-22T11:57:20.239Z,10.10
2022-10-22T11:59:46.851Z,10.70
2022-10-22T12:02:45.966Z,11.40
2022-10-22T12:05:24.475Z,11.30
2022-10-22T12:07:55.730Z,10.80
2022-10-22T12:10:28.513Z,12.00
2022-10-22T12:13:10.931Z,9.80
2022-10-22T12:15:47.969Z,9.40
2022-10-22T12:18:16.457Z,9.60
2022-10-22T12:20:43.042Z,9.00
2022-10-22T12:23:12.624Z,8.60
2022-10-22T12:25:39.394Z,7.60
2022-10-22T12:28:12.227Z,7.60
2022-10-22T12:30:39.237Z,8.00
2022-10-22T12:33:08.078Z,7.60
2022-10-22T12:35:43.510Z,8.20
2022-10-22T12:38:16.877Z,7.80
2022-10-22T12:40:47.469Z,8.60
2022-10-22T12:43:20.423Z,8.50
2022-10-22T12:45:49.448Z,8.60
2022-10-22T12:48:23.941Z,7.90
2022-10-22T12:50:59.832Z,8.80
2022-10-22T12:53:33.605Z,8.50
2022-10-22T12:56:06.201Z,9.10
2022-10-22T12:58:39.869Z,11.90
2022-10-22T13:01:06.775Z,15.00
2022-10-22T13:03:41.838Z,11.30
2022-10-22T13:06:23.383Z,12.50
2022-10-22T13:09:04.114Z,13.10
2022-10-22T13:11:38.222Z,16.90
2022-10-22T13:14:15.877Z,18.40
2022-10-22T13:16:42.418Z,17.10
2022-10-22T13:19:37.734Z,51.80
2022-10-22T13:22:04.581Z,83.10
2022-10-22T13:24:31.142Z,86.60
2022-10-22T13:26:57.968Z,72.60
2022-10-22T13:29:30.142Z,41.90
2022-10-22T13:31:56.684Z,33.90
2022-10-22T13:34:25.629Z,45.20
2022-10-22T13:36:52.839Z,46.60
2022-10-22T13:39:21.968Z,86.60
2022-10-22T13:41:48.990Z,49.10
2022-10-22T13:44:15.630Z,22.10
2022-10-22T13:46:42.476Z,20.30
2022-10-22T13:49:21.030Z,59.10
2022-10-22T13:51:47.990Z,31.00
2022-10-22T13:54:18.223Z,26.30
2022-10-22T13:56:45.203Z,31.00
2022-10-22T13:59:11.785Z,30.50
2022-10-22T14:01:39.221Z,37.00
2022-10-22T14:04:08.351Z,35.50
2022-10-22T14:09:13.799Z,41.90
2022-10-22T14:11:40.447Z,41.20
2022-10-22T14:14:06.985Z,42.90
2022-10-22T14:16:33.630Z,41.90
2022-10-22T14:19:02.131Z,42.70
2022-10-22T14:21:37.071Z,40.40
2022-10-22T14:24:06.083Z,39.50
2022-10-22T14:26:35.067Z,39.50
2022-10-22T14:29:09.365Z,38.20
2022-10-22T14:31:42.037Z,38.60
2022-10-22T14:34:14.277Z,36.80
2022-10-22T14:36:41.028Z,41.90
2022-10-22T14:39:07.531Z,39.60
2022-10-22T14:41:34.496Z,49.90
2022-10-22T14:44:01.106Z,45.00
2022-10-22T14:46:27.761Z,43.90
2022-10-22T14:48:54.405Z,45.30
2022-10-22T14:51:21.984Z,40.00
2022-10-22T14:53:48.993Z,37.80
2022-10-22T14:56:18.804Z,34.70
2022-10-22T14:58:45.503Z,32.90
2022-10-22T15:01:12.222Z,34.40
2022-10-22T15:03:38.994Z,35.70
2022-10-22T15:06:05.846Z,33.80
2022-10-22T15:08:32.530Z,30.80
2022-10-22T15:11:11.575Z,33.90
2022-10-22T15:13:38.844Z,31.10
2022-10-22T15:16:07.161Z,29.50
2022-10-22T15:18:33.797Z,31.10
2022-10-22T15:21:03.535Z,30.70
2022-10-22T15:23:30.774Z,31.50
2022-10-22T15:25:58.132Z,31.50
2022-10-22T15:28:25.676Z,34.20
2022-10-22T15:30:54.283Z,32.80
2022-10-22T15:33:21.030Z,37.70
2022-10-22T15:35:47.610Z,42.50
2022-10-22T15:38:14.218Z,44.80
2022-10-22T15:40:40.768Z,47.60
2022-10-22T15:43:07.516Z,51.90
2022-10-22T15:45:34.256Z,57.80
2022-10-22T15:48:01.002Z,63.80
2022-10-22T15:50:27.546Z,65.60
2022-10-22T15:52:54.161Z,65.70
2022-10-22T15:55:20.931Z,68.10
2022-10-22T15:57:47.573Z,69.90
2022-10-22T16:00:14.828Z,72.00
2022-10-22T16:02:41.472Z,68.10
2022-10-22T16:05:08.834Z,66.80
2022-10-22T16:07:35.376Z,66.50
2022-10-22T16:10:02.029Z,67.80
2022-10-22T16:12:28.559Z,72.90
2022-10-22T16:14:55.096Z,68.80
2022-10-22T16:17:21.844Z,72.90
2022-10-22T16:19:48.688Z,72.90
2022-10-22T16:22:15.330Z,75.60
2022-10-22T16:24:41.982Z,83.60
2022-10-22T16:27:09.862Z,90.50
2022-10-22T16:29:39.365Z,84.40
2022-10-22T16:32:06.758Z,87.60
2022-10-22T16:34:33.572Z,75.60
2022-10-22T16:37:00.425Z,78.20
2022-10-22T16:39:27.068Z,74.10
2022-10-22T16:41:53.712Z,67.70
2022-10-22T16:44:20.356Z,67.70
2022-10-22T16:46:47.088Z,54.00
2022-10-22T16:49:13.747Z,48.00
2022-10-22T16:51:40.445Z,42.40
2022-10-22T16:54:09.865Z,42.40
2022-10-22T16:56:39.000Z,42.20
2022-10-22T16:59:06.463Z,42.10
2022-10-22T17:01:36.737Z,43.30
2022-10-22T17:04:06.507Z,45.80
2022-10-22T17:06:33.157Z,44.00
2022-10-22T17:08:59.835Z,47.50
2022-10-22T17:11:26.853Z,46.60
2022-10-22T17:13:54.453Z,43.90
2022-10-22T17:16:23.782Z,41.10
2022-10-22T17:18:50.796Z,41.50
2022-10-22T17:21:18.688Z,41.30
2022-10-22T17:23:46.423Z,42.50
2022-10-22T17:26:19.414Z,41.90
2022-10-22T17:28:46.161Z,42.20
2022-10-22T17:31:27.754Z,43.40
2022-10-22T17:33:56.149Z,41.30
2022-10-22T17:36:24.452Z,43.60
2022-10-22T17:38:55.622Z,45.30
2022-10-22T17:41:24.797Z,54.20
2022-10-22T17:43:51.629Z,44.60
2022-10-22T17:46:21.577Z,61.50
2022-10-22T17:48:59.924Z,70.20
2022-10-22T17:51:28.653Z,66.00
2022-10-22T17:53:55.294Z,73.70
2022-10-22T17:56:24.393Z,83.70
2022-10-22T17:58:52.043Z,54.20
2022-10-22T18:01:31.204Z,48.70
2022-10-22T18:04:04.805Z,52.90
2022-10-22T18:06:32.676Z,60.40
2022-10-22T18:08:59.213Z,61.60
2022-10-22T18:11:27.714Z,76.70
2022-10-22T18:13:56.925Z,97.50
2022-10-22T18:16:25.023Z,83.00
2022-10-22T18:18:54.321Z,79.50
2022-10-22T18:21:22.877Z,71.30
2022-10-22T18:23:49.721Z,75.90
2022-10-22T18:26:18.423Z,72.90
2022-10-22T18:28:46.948Z,67.90
2022-10-22T18:31:17.354Z,60.50
2022-10-22T18:33:43.900Z,59.70
2022-10-22T18:36:15.019Z,61.80
2022-10-22T18:38:41.823Z,138.70
2022-10-22T18:41:10.059Z,77.60
2022-10-22T18:43:37.202Z,59.30
2022-10-22T18:46:08.248Z,53.40
2022-10-22T18:48:36.662Z,59.90
2022-10-22T18:51:06.466Z,57.70
2022-10-22T18:53:33.809Z,54.90
2022-10-22T18:56:00.453Z,54.70
2022-10-22T18:58:26.885Z,56.90
2022-10-22T19:00:53.388Z,56.70
2022-10-22T19:03:19.956Z,58.40
2022-10-22T19:05:51.642Z,62.40
2022-10-22T19:08:19.089Z,61.80
2022-10-22T19:10:46.789Z,62.00
2022-10-22T19:13:15.813Z,61.90
2022-10-22T19:15:42.508Z,64.90
2022-10-22T19:18:09.027Z,66.40
2022-10-22T19:20:36.693Z,69.60
2022-10-22T19:23:04.163Z,65.80
2022-10-22T19:25:30.691Z,68.50
2022-10-22T19:27:57.128Z,67.20
2022-10-22T19:30:23.561Z,71.90
2022-10-22T19:32:50.511Z,69.50
2022-10-22T19:35:17.568Z,69.80
2022-10-22T19:37:48.314Z,67.40
2022-10-22T19:40:15.646Z,68.90
2022-10-22T19:42:42.603Z,87.10
2022-10-22T19:45:09.868Z,90.90
2022-10-22T19:47:36.535Z,88.60
2022-10-22T19:50:03.152Z,86.70
2022-10-22T19:52:29.699Z,69.70
2022-10-22T19:54:56.248Z,67.50
2022-10-22T19:57:22.658Z,75.10
2022-10-22T19:59:49.226Z,75.10
2022-10-22T20:02:17.702Z,72.80
2022-10-22T20:04:49.113Z,73.80
2022-10-22T20:07:16.833Z,70.90
2022-10-22T20:09:43.493Z,73.20
2022-10-22T20:12:10.021Z,70.10
2022-10-22T20:14:36.580Z,72.20
2022-10-22T20:17:03.200Z,77.00
2022-10-22T20:19:29.651Z,74.80
2022-10-22T20:21:56.258Z,76.50
2022-10-22T20:24:22.927Z,73.40
2022-10-22T20:26:49.462Z,70.30
2022-10-22T20:29:16.411Z,69.00
2022-10-22T20:31:42.950Z,64.80
2022-10-22T20:34:09.901Z,70.30
2022-10-22T20:36:36.445Z,62.80
2022-10-22T20:39:08.138Z,57.60
2022-10-22T20:41:35.227Z,53.80
2022-10-22T20:44:02.123Z,52.30
2022-10-22T20:46:31.409Z,55.80
2022-10-22T20:49:04.313Z,55.10
2022-10-22T20:51:31.358Z,61.60
2022-10-22T20:53:58.006Z,63.40
2022-10-22T20:56:24.768Z,60.00
2022-10-22T20:58:51.600Z,113.70
2022-10-22T21:01:20.127Z,67.70
2022-10-22T21:03:48.068Z,71.40
2022-10-22T21:06:14.718Z,125.70
2022-10-22T21:08:41.167Z,257.90
2022-10-22T21:11:07.608Z,164.90
2022-10-22T21:13:34.962Z,101.70
2022-10-22T21:16:11.192Z,77.70
2022-10-22T21:18:37.874Z,64.40
2022-10-22T21:21:08.602Z,70.00
2022-10-22T21:23:36.219Z,66.90
2022-10-22T21:26:03.034Z,65.20
2022-10-22T21:30:57.003Z,66.50
2022-10-22T21:33:23.649Z,69.60
2022-10-22T21:35:52.335Z,59.30
2022-10-22T21:38:19.227Z,54.60
2022-10-22T21:40:46.567Z,53.70
2022-10-22T21:43:13.795Z,58.10
2022-10-22T21:45:40.348Z,60.10
2022-10-22T21:48:07.332Z,56.10
2022-10-22T21:50:33.820Z,63.60
2022-10-22T21:53:00.364Z,57.60
2022-10-22T21:55:26.806Z,64.10
2022-10-22T21:57:53.342Z,63.40
2022-10-22T22:00:21.527Z,59.70
2022-10-22T22:02:48.370Z,57.50
2022-10-22T22:05:16.650Z,60.90
2022-10-22T22:07:43.275Z,62.50
2022-10-22T22:10:09.828Z,62.70
2022-10-22T22:12:36.264Z,60.70
2022-10-22T22:15:03.006Z,62.10
2022-10-22T22:17:29.469Z,61.90
2022-10-22T22:19:56.187Z,61.50
2022-10-22T22:22:22.953Z,61.10
2022-10-22T22:24:49.392Z,59.10
2022-10-22T22:27:15.942Z,64.10
2022-10-22T22:29:42.614Z,63.80
2022-10-22T22:32:09.559Z,62.70
2022-10-22T22:34:36.778Z,65.20
2022-10-22T22:37:03.306Z,65.60
2022-10-22T22:39:29.841Z,67.40
2022-10-22T22:41:56.279Z,71.60
2022-10-22T22:44:22.819Z,65.70
2022-10-22T22:46:49.460Z,70.40
2022-10-22T22:49:15.900Z,64.50
2022-10-22T22:51:42.393Z,60.90
2022-10-22T22:54:09.964Z,41.50
2022-10-22T22:56:37.158Z,47.90
2022-10-22T22:59:05.345Z,25.30
2022-10-22T23:01:37.005Z,23.40
2022-10-22T23:04:06.749Z,24.60
2022-10-22T23:06:35.840Z,22.70
2022-10-22T23:09:07.240Z,22.60
2022-10-22T23:11:34.732Z,21.80
2022-10-22T23:14:03.910Z,22.20
2022-10-22T23:16:32.863Z,21.30
2022-10-22T23:19:01.149Z,19.70
2022-10-22T23:21:39.431Z,18.60
2022-10-22T23:24:09.234Z,18.40
2022-10-22T23:26:38.115Z,18.40
2022-10-22T23:29:11.076Z,17.70
2022-10-22T23:31:37.774Z,15.50
2022-10-22T23:34:07.043Z,14.00
2022-10-22T23:36:35.284Z,14.10
2022-10-22T23:39:05.557Z,14.10
2022-10-22T23:41:32.247Z,13.70
2022-10-22T23:43:59.081Z,13.60
2022-10-22T23:46:25.745Z,12.70
2022-10-22T23:48:52.261Z,12.20
2022-10-22T23:51:18.797Z,13.30
2022-10-22T23:53:46.055Z,13.20
2022-10-22T23:56:18.128Z,14.60
2022-10-22T23:58:45.274Z,13.80
